• Join FlightAware (Why Join?)
  • Login
  • US Flag 
12:20AM EDT


 

Airport Tracker/Info


-or-


 

Live Flight TrackerFlight Track Log ✈ CUB178 ✈ 21-Apr-2013 ✈ MUHG / HOG - CYUL

Flight Track Log - Related Links

Times and Time Zones

All times are in EDT time to prevent confusion due to time zone crossing. See the CUB178 flight status page for this flight to view local times or setup timezone preferences in your user account.

Time Position Orientation Groundspeed Altitude Reporting Facility
EDT Latitude Longitude Course Direction KTS MPH feet Rate Location/Type
01:41PM 23.9160 -81.0740 318° Northwest 427 491 34,000  Level FlightAware
01:42PM 23.9990 -81.1330 327° Northwest 436 502 34,000  Level FlightAware
01:42PM 24.0750 -81.1670 338° Northwest 441 507 34,000  Level FlightAware
01:43PM 24.1420 -81.1850 346° North 440 506 34,000  Level FlightAware
01:44PM 24.2710 -81.1910 358° North 452 520 34,000  Level FlightAware
01:45PM 24.3720 -81.1730 North 455 524 34,000  Level FlightAware
01:45PM 24.4670 -81.1560 North 456 525 34,000  Level FlightAware
01:46PM 24.5520 -81.1430 North 456 525 34,000  Level FlightAware
01:47PM 24.6360 -81.1310 North 456 525 34,000  Level FlightAware
01:48PM 24.7600 -81.1290 North 432 497 34,000  Level FlightAware
01:48PM 24.8400 -81.1400 353° North 437 503 34,000  Level FlightAware
01:49PM 24.9200 -81.1500 354° North 439 505 34,000  Level FlightAware
01:50PM 25.0120 -81.1620 353° North 441 507 34,000  Level FlightAware
01:50PM 25.0930 -81.1730 353° North 436 502 34,000  Level FlightAware
01:51PM 25.1760 -81.1840 353° North 439 505 34,000  Level FlightAware
01:52PM 25.2700 -81.1970 353° North 439 505 34,000  Level FlightAware
01:53PM 25.3500 -81.2090 352° North 440 506 34,000  Level FlightAware
01:53PM 25.4310 -81.2200 353° North 441 507 34,000  Level FlightAware
01:54PM 25.5240 -81.2320 353° North 434 499 34,000  Level FlightAware
01:55PM 25.6020 -81.2420 353° North 441 507 34,000  Level FlightAware
01:55PM 25.6960 -81.2550 353° North 435 501 34,000  Level FlightAware
01:56PM 25.7770 -81.2670 352° North 436 502 34,000  Level FlightAware
01:57PM 25.8700 -81.2800 353° North 437 503 34,000 180 Level FlightAware
01:57PM 25.9530 -81.2910 353° North 435 501 34,300 600 Climbing FlightAware
01:58PM 26.0410 -81.3030 353° North 436 502 34,900 720 Climbing FlightAware
01:59PM 26.1240 -81.3140 353° North 423 487 35,400 540 Climbing FlightAware
02:00PM 26.2110 -81.3260 353° North 421 484 35,700 300 Climbing FlightAware
02:00PM 26.2920 -81.3370 353° North 422 486 35,900 60 Climbing FlightAware
02:01PM 26.3700 -81.3480 353° North 438 504 35,800 -120 Descending FlightAware
02:02PM 26.4650 -81.3610 353° North 436 502 35,800 60 Level FlightAware
02:02PM 26.5420 -81.3720 353° North 435 501 35,900 120 Climbing FlightAware
02:03PM 26.6140 -81.3820 353° North 435 501 36,000 120 Climbing FlightAware
02:04PM 26.7170 -81.4020 350° North 431 496 36,100  Climbing FlightAware
02:04PM 26.7760 -81.4240 342° North 422 486 36,000 -120 Descending FlightAware
02:05PM 26.8430 -81.4630 333° Northwest 418 481 36,000  Level FlightAware
02:06PM 26.9150 -81.5210 324° Northwest 406 467 36,000  Level FlightAware
02:07PM 26.9740 -81.5860 316° Northwest 405 466 36,000  Level FlightAware
02:07PM 27.0360 -81.6440 320° Northwest 419 482 36,000  Level FlightAware
02:08PM 27.1000 -81.6860 330° Northwest 428 493 36,000  Level FlightAware
02:09PM 27.1860 -81.7230 339° North 428 493 36,000  Level FlightAware
02:09PM 27.2600 -81.7510 341° North 425 489 36,000  Level FlightAware
02:10PM 27.3380 -81.7810 341° North 423 487 36,000  Level FlightAware
02:11PM 27.4240 -81.8140 341° North 422 486 36,000 60 Level FlightAware
02:11PM 27.4960 -81.8420 341° North 413 475 36,100  Climbing FlightAware
02:12PM 27.5890 -81.8770 342° North 424 488 36,000 -120 Descending FlightAware
02:13PM 27.6660 -81.9070 341° North 425 489 36,000  Level FlightAware
02:14PM 27.7380 -81.9340 342° North 425 489 36,000  Level FlightAware
02:14PM 27.8120 -81.9630 341° North 422 486 36,000  Level FlightAware
02:15PM 27.8970 -81.9960 341° North 421 484 36,000  Level FlightAware
02:16PM 27.9720 -82.0250 341° North 418 481 36,000  Level FlightAware
02:16PM 28.0470 -82.0690 333° Northwest 411 473 36,000  Level FlightAware
02:17PM 28.1230 -82.1170 331° Northwest 413 475 36,000  Level FlightAware
02:18PM 28.1900 -82.1590 331° Northwest 412 474 36,000  Level FlightAware
02:18PM 28.2580 -82.2020 331° Northwest 412 474 36,000  Level FlightAware
02:19PM 28.3300 -82.2470 331° Northwest 413 475 36,000  Level FlightAware
02:20PM 28.3980 -82.2910 330° Northwest 411 473 36,000  Level FlightAware
02:21PM 28.4650 -82.3330 331° Northwest 414 476 36,000  Level FlightAware
02:21PM 28.5410 -82.3810 331° Northwest 412 474 36,000  Level FlightAware
02:22PM 28.6090 -82.4250 330° Northwest 414 476 36,000  Level FlightAware
02:23PM 28.6820 -82.4710 331° Northwest 415 478 36,000  Level FlightAware
02:23PM 28.7500 -82.5150 330° Northwest 415 478 36,000  Level FlightAware
02:24PM 28.8260 -82.5640 331° Northwest 416 479 36,000  Level FlightAware
02:25PM 28.8940 -82.6070 331° Northwest 419 482 36,000  Level FlightAware
02:26PM 28.9860 -82.6660 331° Northwest 421 484 36,000  Level FlightAware
02:26PM 29.0540 -82.7100 331° Northwest 421 484 36,000  Level FlightAware
02:27PM 29.1200 -82.7530 330° Northwest 421 484 36,000  Level FlightAware
02:28PM 29.1820 -82.7920 331° Northwest 423 487 36,000  Level FlightAware
02:29PM 29.2950 -82.8660 330° Northwest 424 488 36,000  Level FlightAware
02:29PM 29.3610 -82.9080 331° Northwest 425 489 36,000  Level FlightAware
02:30PM 29.4240 -82.9490 330° Northwest 428 493 36,000  Level FlightAware
02:31PM 29.5250 -82.9990 337° Northwest 435 501 36,000  Level FlightAware
02:32PM 29.6610 -83.0250 351° North 469 540 36,000  Level FlightAware
02:33PM 29.7270 -83.0290 357° North 469 540 36,000  Level FlightAware
02:33PM 29.8150 -83.0140 North 469 540 36,000  Level FlightAware
02:34PM 29.8700 -83.0120 North 469 540 36,000 -180 Level FlightAware
02:35PM 30.0160 -82.9480 21° North 482 555 35,800 -180 Descending FlightAware
02:35PM 30.0820 -82.9310 13° North 482 555 35,800  Level FlightAware
02:36PM 30.1560 -82.9110 13° North 482 555 35,800  Level FlightAware
02:37PM 30.2480 -82.8860 13° North 482 555 35,800  Level FlightAware
02:37PM 30.3220 -82.8660 13° North 482 555 35,800  Level FlightAware
02:38PM 30.3960 -82.8470 12° North 482 555 35,800  Level FlightAware
02:39PM 30.4700 -82.8270 13° North 482 555 35,800  Level FlightAware
02:39PM 30.5440 -82.8070 13° North 482 555 35,800  Level FlightAware
02:40PM 30.6360 -82.7820 13° North 482 555 35,800  Level FlightAware
02:41PM 30.7100 -82.7620 13° North 482 555 35,800  Level FlightAware
02:42PM 30.7840 -82.7430 12° North 482 555 35,800  Level FlightAware
02:42PM 30.8580 -82.7230 13° North 482 555 35,800  Level FlightAware
02:43PM 30.9320 -82.7030 13° North 482 555 35,800  Level FlightAware
02:44PM 31.0240 -82.6780 13° North 482 555 35,800  Level FlightAware
02:44PM 31.0980 -82.6580 13° North 482 555 35,800 -900 Level FlightAware
02:45PM 31.3267 -82.5714 13° North 489 563 35,000 -660 Descending Jacksonville Center
02:46PM 31.4625 -82.5297 15° North 484 557 35,000  Level Jacksonville Center
02:53PM 32.4800 -82.3710 15° North 496 571 35,000  Level FlightAware
02:54PM 32.5580 -82.3590 North 497 572 35,000  Level FlightAware
02:54PM 32.6120 -82.3500 North 498 573 35,000  Level FlightAware
02:55PM 32.7080 -82.3350 North 498 573 35,000  Level FlightAware
02:56PM 32.8190 -82.3170 North 499 574 35,000  Level FlightAware
02:56PM 32.9000 -82.3050 North 500 575 35,000  Level FlightAware
02:58PM 33.1150 -82.2700 North 504 580 35,000  Level FlightAware
02:58PM 33.2060 -82.2550 North 508 585 35,000  Level FlightAware
02:59PM 33.3120 -82.2380 North 505 581 35,000  Level FlightAware
03:00PM 33.4217 -82.2069 North 502 578 35,000  Level Atlanta Center
03:01PM 33.5631 -82.1842 North 502 578 35,000  Level Atlanta Center
03:02PM 33.7069 -82.1608 North 502 578 35,000  Level Atlanta Center
03:03PM 33.8483 -82.1378 North 507 583 35,000  Level Atlanta Center
03:04PM 33.9900 -82.1122 North 507 583 35,000  Level Atlanta Center
03:05PM 34.1481 -82.0833 North 514 592 35,000  Level Atlanta Center
03:10PM 34.8800 -81.9680 North 517 595 35,000  Level FlightAware
03:10PM 34.9295 -81.9593 North 517 595 35,000  Level FlightAware ADS-B
03:11PM 34.9732 -81.9485 11° North 523 602 35,000  Level FlightAware ADS-B
03:11PM 35.0488 -81.9219 16° North 530 610 35,000  Level FlightAware ADS-B
03:12PM 35.1179 -81.8886 22° Northeast 535 616 35,000  Level FlightAware ADS-B
03:12PM 35.1869 -81.8492 25° Northeast 536 617 35,000  Level FlightAware ADS-B
03:13PM 35.2566 -81.8093 25° Northeast 535 616 35,000  Level FlightAware ADS-B
03:13PM 35.3252 -81.7700 25° Northeast 537 618 35,000  Level FlightAware ADS-B
03:14PM 35.3939 -81.7302 25° Northeast 537 618 35,000  Level FlightAware ADS-B
03:14PM 35.4648 -81.6893 25° Northeast 538 619 35,000  Level FlightAware ADS-B
03:15PM 35.5335 -81.6497 25° Northeast 536 617 35,000  Level FlightAware ADS-B
03:15PM 35.6106 -81.6050 25° Northeast 535 616 35,000  Level FlightAware ADS-B
03:16PM 35.6792 -81.5652 25° Northeast 537 618 35,000  Level FlightAware ADS-B
03:16PM 35.7474 -81.5255 25° Northeast 535 616 35,000  Level FlightAware ADS-B
03:17PM 35.8149 -81.4861 25° Northeast 534 615 35,000  Level FlightAware ADS-B
03:18PM 35.8855 -81.4447 25° Northeast 534 615 35,000  Level FlightAware ADS-B
03:18PM 35.9536 -81.4048 25° Northeast 535 616 35,000  Level FlightAware ADS-B
03:19PM 36.0308 -81.3596 25° Northeast 535 616 35,000  Level FlightAware ADS-B
03:20PM 36.0610 -81.3430 24° Northeast 536 617 35,000  Level FlightAware
03:21PM 36.1380 -81.2990 25° Northeast 536 617 35,000  Level FlightAware
03:21PM 36.3351 -81.1800 26° Northeast 535 616 35,000  Level FlightAware ADS-B
03:21PM 36.4038 -81.1395 25° Northeast 535 616 35,000  Level FlightAware ADS-B
03:22PM 36.5326 -81.0630 26° Northeast 535 616 35,000  Level FlightAware ADS-B
03:23PM 36.6442 -80.9965 26° Northeast 536 617 35,000  Level FlightAware ADS-B
03:24PM 36.7483 -80.9144 26° Northeast 524 603 35,000  Level Atlanta Center
03:25PM 36.8675 -80.8447 25° Northeast 519 597 35,000 60 Level Atlanta Center
03:31PM 37.6730 -80.5340 25° Northeast 511 588 35,600 120 Climbing FlightAware
03:31PM 37.7660 -80.5030 15° North 512 589 35,800 480 Climbing FlightAware
03:32PM 37.8690 -80.4680 15° North 510 587 36,300 600 Climbing FlightAware
03:33PM 37.9600 -80.4370 15° North 507 583 36,700 480 Climbing FlightAware
03:34PM 38.0620 -80.4020 15° North 510 587 37,000 180 Climbing FlightAware
03:34PM 38.1570 -80.3700 15° North 518 596 37,000  Level FlightAware
03:35PM 38.2600 -80.3340 15° North 523 602 37,000  Level FlightAware
03:36PM 38.3520 -80.3020 15° North 524 603 37,000  Level FlightAware
03:36PM 38.4470 -80.2700 15° North 523 602 37,000  Level FlightAware
03:37PM 38.5540 -80.2330 15° North 525 604 37,000  Level FlightAware
03:38PM 38.6430 -80.2020 15° North 525 604 37,000  Level FlightAware
03:38PM 38.7410 -80.1680 15° North 525 604 37,000  Level FlightAware
03:39PM 38.8460 -80.1310 15° North 524 603 37,000  Level FlightAware
03:40PM 38.9520 -80.1100 North 511 588 37,000  Level FlightAware
03:41PM 39.0480 -80.1110 360° North 501 577 37,000  Level FlightAware
03:41PM 39.1390 -80.1180 357° North 501 577 37,000  Level FlightAware
03:42PM 39.2580 -80.1200 359° North 507 583 37,000  Level FlightAware
03:43PM 39.3650 -80.1000 North 510 587 37,000  Level FlightAware
03:44PM 39.4450 -80.0710 16° North 515 593 37,000  Level FlightAware
03:44PM 39.5600 -80.0080 23° Northeast 519 597 37,000  Level FlightAware
03:45PM 39.6580 -79.9160 36° Northeast 530 610 37,000  Level FlightAware
03:46PM 39.7130 -79.8510 42° Northeast 529 609 37,000  Level FlightAware
03:47PM 39.7970 -79.7260 49° Northeast 531 611 37,000  Level FlightAware
03:47PM 39.8480 -79.6490 49° Northeast 533 613 37,000  Level FlightAware
03:48PM 39.9300 -79.5270 49° Northeast 535 616 37,000  Level FlightAware
03:49PM 40.0030 -79.4180 49° Northeast 535 616 37,000  Level FlightAware
03:49PM 40.0730 -79.3130 49° Northeast 536 617 37,000  Level FlightAware
03:50PM 40.1460 -79.2040 49° Northeast 537 618 37,000  Level FlightAware
03:51PM 40.2080 -79.1100 49° Northeast 536 617 37,000  Level FlightAware
03:51PM 40.2720 -79.0140 49° Northeast 536 617 37,000  Level FlightAware
03:52PM 40.3490 -78.8970 49° Northeast 538 619 37,000  Level FlightAware
03:53PM 40.4170 -78.7940 49° Northeast 539 620 37,000  Level FlightAware
03:54PM 40.4800 -78.6980 49° Northeast 539 620 37,000  Level FlightAware
03:55PM 40.5820 -78.5410 49° Northeast 536 617 37,000  Level FlightAware
03:55PM 40.6440 -78.4450 50° Northeast 534 615 37,000  Level FlightAware
03:56PM 40.6990 -78.3610 49° Northeast 534 615 37,000  Level FlightAware
03:56PM 40.7680 -78.2540 50° Northeast 528 608 37,000  Level FlightAware
03:57PM 40.8470 -78.1310 50° Northeast 533 613 37,000  Level FlightAware
03:58PM 40.9240 -78.0290 45° Northeast 527 606 37,000  Level FlightAware
03:59PM 41.0010 -77.9500 38° Northeast 518 596 37,000  Level FlightAware
03:59PM 41.0910 -77.8800 30° Northeast 513 590 37,000  Level FlightAware
04:00PM 41.1780 -77.8160 29° Northeast 515 593 37,000  Level FlightAware
04:01PM 41.2700 -77.7460 30° Northeast 513 590 37,000  Level FlightAware
04:02PM 41.3510 -77.6830 30° Northeast 510 587 37,000  Level FlightAware
04:02PM 41.4330 -77.6190 30° Northeast 505 581 37,000  Level FlightAware
04:03PM 41.5240 -77.5480 30° Northeast 503 579 37,000  Level FlightAware
04:03PM 41.5740 -77.5090 30° Northeast 501 577 37,000  Level FlightAware
04:04PM 41.6640 -77.4380 31° Northeast 501 577 37,000  Level FlightAware
04:05PM 41.7430 -77.3760 30° Northeast 503 579 37,000  Level FlightAware
04:05PM 41.8230 -77.3130 30° Northeast 507 583 37,000  Level FlightAware
04:06PM 41.9150 -77.2390 31° Northeast 508 585 37,000  Level FlightAware
04:07PM 41.9940 -77.1770 30° Northeast 508 585 37,000  Level FlightAware
04:08PM 42.0860 -77.1040 30° Northeast 512 589 37,000  Level FlightAware
04:08PM 42.1710 -77.0360 31° Northeast 513 590 37,000  Level FlightAware
04:09PM 42.2510 -76.9710 31° Northeast 511 588 37,000  Level FlightAware
04:10PM 42.3400 -76.9000 31° Northeast 511 588 37,000  Level FlightAware
04:10PM 42.4210 -76.8350 31° Northeast 511 588 37,000  Level FlightAware
04:11PM 42.5050 -76.7660 31° Northeast 510 587 37,000  Level FlightAware
04:12PM 42.5930 -76.6950 31° Northeast 512 589 37,000  Level FlightAware
04:12PM 42.6770 -76.6260 31° Northeast 513 590 37,000  Level FlightAware
04:13PM 42.7690 -76.5510 31° Northeast 512 589 37,000  Level FlightAware
04:14PM 42.8490 -76.4850 31° Northeast 514 592 37,000  Level FlightAware
04:15PM 42.9370 -76.4130 31° Northeast 518 596 37,000  Level FlightAware
04:15PM 43.0250 -76.3410 31° Northeast 519 597 37,000  Level FlightAware
04:16PM 43.1180 -76.2730 28° Northeast 510 587 37,000  Level FlightAware
04:17PM 43.2080 -76.2280 20° North 502 578 37,000  Level FlightAware
04:17PM 43.2950 -76.2000 13° North 496 571 37,000  Level FlightAware
04:18PM 43.3630 -76.1870 North 491 565 37,000  Level FlightAware
04:19PM 43.4510 -76.1740 North 483 556 37,000 -240 Level FlightAware
04:19PM 43.5530 -76.1570 North 483 556 36,700 -600 Descending FlightAware
04:20PM 43.6400 -76.1420 North 473 544 36,200 -900 Descending FlightAware
04:21PM 43.7250 -76.1270 North 477 549 35,500 -1,080 Descending FlightAware
04:21PM 43.8290 -76.1080 North 476 548 34,700 -1,020 Descending FlightAware
04:22PM 43.9150 -76.0800 13° North 485 558 34,100 -1,740 Descending FlightAware
04:23PM 44.0070 -76.0310 21° North 485 558 32,300 -2,760 Descending FlightAware
04:23PM 44.0870 -75.9700 29° Northeast 483 556 30,200 -3,000 Descending FlightAware
04:24PM 44.1560 -75.8940 38° Northeast 485 558 28,300 -1,560 Descending FlightAware
04:25PM 44.2290 -75.7940 44° Northeast 494 568 28,000 -240 Descending FlightAware
04:26PM 44.2950 -75.7050 44° Northeast 497 572 28,000  Level FlightAware
04:26PM 44.3520 -75.6270 44° Northeast 497 572 28,000  Level FlightAware
04:27PM 44.4340 -75.5160 44° Northeast 496 571 28,000  Level FlightAware
04:28PM 44.5170 -75.4020 44° Northeast 497 572 28,000  Level FlightAware
04:29PM 44.6000 -75.2880 44° Northeast 497 572 28,000  Level FlightAware
04:29PM 44.6580 -75.2080 44° Northeast 498 573 28,000 -540 Level FlightAware
04:30PM 44.7290 -75.1110 44° Northeast 500 575 27,300 -2,040 Descending FlightAware
04:31PM 44.8010 -75.0100 45° Northeast 485 558 25,000 -3,000 Descending FlightAware
04:31PM 44.8590 -74.9290 45° Northeast 468 539 23,300 -2,700 Descending FlightAware
04:32PM 44.9260 -74.8360 44° Northeast 446 513 21,400 -2,520 Descending FlightAware
04:33PM 44.9840 -74.7540 45° Northeast 430 495 19,600 -2,580 Descending FlightAware
04:34PM 45.0490 -74.6630 45° Northeast 412 474 17,600 -2,100 Descending FlightAware
04:34PM 45.0960 -74.5960 45° Northeast 385 443 16,800 -1,200 Descending FlightAware
04:35PM 45.1390 -74.5360 45° Northeast 357 411 16,200 -1,020 Descending FlightAware
04:36PM 45.1960 -74.4550 45° Northeast 321 369 15,400 -1,140 Descending FlightAware
04:36PM 45.2330 -74.3800 55° Northeast 312 359 14,400 -1,440 Descending FlightAware
04:37PM 45.2650 -74.3040 59° Northeast 302 348 13,300 -1,440 Descending FlightAware
04:38PM 45.2880 -74.2510 58° Northeast 296 341 12,600 -1,440 Descending FlightAware
04:38PM 45.3210 -74.1740 59° Northeast 287 330 11,400 -1,440 Descending FlightAware
04:39PM 45.3540 -74.1000 58° Northeast 279 321 10,400 -1,440 Descending FlightAware
04:39PM 45.3690 -74.0720 53° Northeast 268 308 9,900 -1,320 Descending FlightAware
04:40PM 45.4020 -74.0310 41° Northeast 262 302 9,200 -1,200 Descending FlightAware
04:40PM 45.4230 -74.0040 42° Northeast 256 295 8,700 -1,200 Descending FlightAware
04:41PM 45.4420 -73.9790 43° Northeast 246 283 8,300 -1,200 Descending FlightAware
04:41PM 45.4620 -73.9530 42° Northeast 239 275 7,800 -1,020 Descending FlightAware
04:42PM 45.4860 -73.9220 42° Northeast 237 273 7,400 -600 Descending FlightAware
04:42PM 45.5030 -73.9000 42° Northeast 238 274 7,300 -780 Descending FlightAware
04:43PM 45.5310 -73.8630 43° Northeast 239 275 6,700 -900 Descending FlightAware
04:43PM 45.5500 -73.8390 41° Northeast 233 268 6,400 -360 Descending FlightAware
04:44PM 45.5730 -73.8080 43° Northeast 221 254 6,400 -120 Level FlightAware
04:44PM 45.5970 -73.7780 41° Northeast 223 257 6,300 -300 Descending FlightAware
04:44PM 45.6050 -73.7670 44° Northeast 220 253 6,200 -1,080 Descending FlightAware
04:45PM 45.6270 -73.7380 43° Northeast 215 247 5,600 -1,140 Descending FlightAware
04:45PM 45.6540 -73.7000 45° Northeast 209 241 4,900 -1,320 Descending FlightAware
04:46PM 45.6690 -73.6770 47° Northeast 211 243 4,300 -1,200 Descending FlightAware
04:46PM 45.6730 -73.6460 80° East 204 235 4,000 -900 Descending FlightAware
04:46PM 45.6670 -73.6300 118° Southeast 196 226 3,700 -1,380 Descending FlightAware
04:47PM 45.6510 -73.6060 134° Southeast 192 221 3,100 -1,140 Descending FlightAware
04:47PM 45.6260 -73.5950 163° South 187 215 2,700 -660 Descending FlightAware
04:48PM 45.6090 -73.6050 202° Southwest 185 213 2,500 -420 Descending FlightAware
04:48PM 45.5940 -73.6210 217° Southwest 185 213 2,400 -420 Descending FlightAware
04:48PM 45.5790 -73.6410 223° Southwest 185 213 2,200 -840 Descending FlightAware
04:49PM 45.5640 -73.6600 222° Southwest 178 205 1,700 -1,200 Descending FlightAware
04:49PM 45.5510 -73.6780 224° Southwest 161 185 1,300 -840 Descending FlightAware
04:50PM 45.5360 -73.6970 222° Southwest 142 163 1,000 -840 Descending FlightAware
04:50PM 45.5210 -73.7170 223° Southwest 132 152 500 -960 Descending FlightAware
04:50PM 45.5150 -73.7250 223° Southwest 133 153 300 -600 Descending FlightAware
04:51PM 45.5050 -73.7390 224° Southwest 133 153 100 -480 Descending FlightAware
04:51PM 45.4910 -73.7560 220° Southwest 130 150 -240 Descending FlightAware
04:52PM 45.4820 -73.7680 223° Southwest 134 154  Level FlightAware